Time;durP1;ratioP1;P1;durP2;ratioP2;P2;SDS_P1;SDS_P2;PMS_P1;PMS_P2;Temp;Humidity;BMP_temperature;BMP_pressure;BME280_temperature;BME280_humidity;BME280_pressure;Samples;Min_cycle;Max_cycle;Signal;HPM_P1;HPM_P2
2024/01/09 00:00:48;;;;;;;5.05;2.28;;;-0.80;99.90;;;;;;5086281;28;20492;-74
2024/01/09 00:03:14;;;;;;;7.38;2.60;;;-0.80;99.90;;;;;;5085780;28;20055;-74
2024/01/09 00:05:39;;;;;;;4.28;2.22;;;-0.80;99.90;;;;;;5086129;28;20064;-74
2024/01/09 00:08:05;;;;;;;5.35;2.50;;;-0.80;99.90;;;;;;5085575;28;20035;-74
2024/01/09 00:10:31;;;;;;;3.50;1.98;;;-0.90;99.90;;;;;;5089230;28;20481;-73
2024/01/09 00:12:58;;;;;;;5.80;2.80;;;-0.90;99.90;;;;;;5086191;28;20032;-74
2024/01/09 00:15:24;;;;;;;4.05;2.00;;;-0.90;99.90;;;;;;5067541;28;20020;-74
2024/01/09 00:17:50;;;;;;;4.13;2.40;;;-0.90;99.90;;;;;;5066338;28;20013;-74
2024/01/09 00:20:16;;;;;;;4.35;2.10;;;-0.90;99.90;;;;;;5086215;28;20020;-74
2024/01/09 00:22:42;;;;;;;5.80;2.40;;;-0.90;99.90;;;;;;5085692;28;20024;-73
2024/01/09 00:25:08;;;;;;;4.55;2.15;;;-1.00;99.90;;;;;;5086039;28;20031;-74
2024/01/09 00:27:34;;;;;;;5.30;2.08;;;-1.00;99.90;;;;;;5067652;28;20070;-74
2024/01/09 00:30:00;;;;;;;4.53;2.53;;;-1.00;99.90;;;;;;5084995;28;20022;-74
2024/01/09 00:32:27;;;;;;;4.97;2.60;;;-1.00;99.90;;;;;;5067757;28;20031;-74
2024/01/09 00:34:52;;;;;;;5.13;2.28;;;-1.00;99.90;;;;;;5066633;28;20016;-74
2024/01/09 00:37:18;;;;;;;4.95;2.17;;;-1.00;99.90;;;;;;5085526;28;20447;-74
2024/01/09 00:39:44;;;;;;;4.38;2.30;;;-1.00;99.90;;;;;;5084986;28;20031;-74
2024/01/09 00:42:09;;;;;;;5.57;2.60;;;-1.00;99.90;;;;;;5085624;28;20031;-74
2024/01/09 00:44:35;;;;;;;3.67;2.00;;;-1.00;99.90;;;;;;5066930;28;20108;-73
2024/01/09 00:47:01;;;;;;;4.43;2.08;;;-1.10;99.90;;;;;;5067099;28;20032;-74
2024/01/09 00:49:26;;;;;;;5.00;2.20;;;-1.00;99.90;;;;;;5084577;28;20031;-74
2024/01/09 00:51:52;;;;;;;5.70;2.60;;;-1.10;99.90;;;;;;5084714;28;20452;-74
2024/01/09 00:54:19;;;;;;;4.38;2.22;;;-1.10;99.90;;;;;;5066725;28;20024;-74
2024/01/09 00:56:45;;;;;;;4.32;1.95;;;-1.10;99.90;;;;;;5085199;28;20051;-74
2024/01/09 00:59:10;;;;;;;6.55;2.47;;;-1.10;99.90;;;;;;5066755;28;20063;-73
2024/01/09 01:01:36;;;;;;;4.78;2.38;;;-1.10;99.90;;;;;;5085406;28;20477;-73
2024/01/09 01:04:02;;;;;;;5.68;2.10;;;-1.10;99.90;;;;;;5066378;28;20031;-72
2024/01/09 01:06:27;;;;;;;3.95;2.05;;;-1.10;99.90;;;;;;5085291;28;20020;-73
2024/01/09 01:08:53;;;;;;;3.75;2.10;;;-1.10;99.90;;;;;;5084818;28;20497;-73
2024/01/09 01:11:18;;;;;;;3.50;2.13;;;-1.10;99.90;;;;;;5085405;28;20446;-73
2024/01/09 01:13:44;;;;;;;5.15;2.10;;;-1.10;99.90;;;;;;5084809;28;20021;-73
2024/01/09 01:16:10;;;;;;;3.30;1.95;;;-1.20;99.90;;;;;;5085580;28;20024;-72
2024/01/09 01:18:36;;;;;;;5.10;2.20;;;-1.20;99.90;;;;;;5085140;28;20145;-73
2024/01/09 01:21:01;;;;;;;4.80;2.20;;;-1.20;99.90;;;;;;5085108;28;20020;-72
2024/01/09 01:23:27;;;;;;;5.28;2.55;;;-1.20;99.90;;;;;;5084893;28;20020;-74
2024/01/09 01:25:53;;;;;;;5.05;2.25;;;-1.20;99.90;;;;;;5085148;28;20020;-73
2024/01/09 01:28:19;;;;;;;6.43;2.38;;;-1.20;99.90;;;;;;5085644;28;20020;-73
2024/01/09 01:30:44;;;;;;;5.13;2.10;;;-1.20;99.90;;;;;;5088646;28;20023;-72
2024/01/09 01:33:10;;;;;;;6.80;2.42;;;-1.20;99.90;;;;;;5088358;28;20307;-72
2024/01/09 01:35:35;;;;;;;4.75;2.40;;;-1.20;99.90;;;;;;5089020;28;20103;-73
2024/01/09 01:38:01;;;;;;;7.15;2.00;;;-1.20;99.90;;;;;;5088267;28;20049;-73
2024/01/09 01:40:27;;;;;;;4.43;2.10;;;-1.20;99.90;;;;;;5089150;28;20055;-73
2024/01/09 01:42:57;;;;;;;3.95;2.20;;;-1.20;99.90;;;;;;5088537;28;20020;-75
2024/01/09 01:45:24;;;;;;;4.55;2.40;;;-1.20;99.90;;;;;;5070870;28;20024;-73
2024/01/09 01:47:51;;;;;;;5.10;2.13;;;-1.20;99.90;;;;;;5070396;28;20031;-73
2024/01/09 01:50:16;;;;;;;4.93;2.08;;;-1.20;99.90;;;;;;5070058;28;20047;-73
2024/01/09 01:52:45;;;;;;;4.60;2.20;;;-1.30;99.90;;;;;;5051055;28;20498;-73
2024/01/09 01:55:11;;;;;;;5.00;2.05;;;-1.30;99.90;;;;;;5048344;28;20029;-73
2024/01/09 01:57:40;;;;;;;3.90;1.85;;;-1.20;99.90;;;;;;5048778;28;20013;-74
2024/01/09 02:00:07;;;;;;;4.05;2.25;;;-1.30;99.90;;;;;;5067842;28;20044;-73
2024/01/09 02:02:34;;;;;;;4.55;2.38;;;-1.30;99.90;;;;;;5054894;28;20036;-73
2024/01/09 02:04:59;;;;;;;4.90;2.47;;;-1.30;99.90;;;;;;5047358;28;20013;-74
2024/01/09 02:07:28;;;;;;;5.63;2.75;;;-1.30;99.90;;;;;;5048705;28;20074;-73
2024/01/09 02:09:54;;;;;;;6.20;2.63;;;-1.30;99.90;;;;;;5061434;28;20473;-73
2024/01/09 02:12:20;;;;;;;5.00;2.08;;;-1.30;99.90;;;;;;5046713;28;20056;-74
2024/01/09 02:14:47;;;;;;;4.78;2.15;;;-1.30;99.90;;;;;;5045932;28;20494;-74
2024/01/09 02:17:13;;;;;;;5.00;2.28;;;-1.30;99.90;;;;;;5048005;28;20028;-74
2024/01/09 02:19:39;;;;;;;6.05;2.10;;;-1.30;99.90;;;;;;5048034;28;20031;-74
2024/01/09 02:22:04;;;;;;;4.53;2.40;;;-1.30;99.90;;;;;;5048052;28;20036;-74
2024/01/09 02:24:30;;;;;;;5.35;2.08;;;-1.40;99.90;;;;;;5047148;28;20405;-74
2024/01/09 02:27:26;;;;;;;3.53;2.03;;;-1.40;99.90;;;;;;5046445;28;20546;-74
2024/01/09 02:29:53;;;;;;;4.95;2.17;;;-1.30;99.90;;;;;;5037137;28;20025;-74
2024/01/09 02:32:20;;;;;;;4.68;2.10;;;-1.30;99.90;;;;;;5048092;28;20048;-74
2024/01/09 02:34:46;;;;;;;5.15;2.17;;;-1.30;99.90;;;;;;5047207;28;20043;-74
2024/01/09 02:37:12;;;;;;;5.53;2.75;;;-1.40;99.90;;;;;;5046537;28;20021;-75
2024/01/09 02:39:38;;;;;;;4.63;2.47;;;-1.40;99.90;;;;;;5046893;28;20466;-75
2024/01/09 02:42:04;;;;;;;5.13;2.30;;;-1.40;99.90;;;;;;5047181;28;20024;-74
2024/01/09 02:44:29;;;;;;;5.25;2.40;;;-1.40;99.90;;;;;;5047159;28;20540;-74
2024/01/09 02:46:55;;;;;;;4.78;2.22;;;-1.40;99.90;;;;;;5046049;28;20204;-75
2024/01/09 02:49:21;;;;;;;5.80;2.30;;;-1.40;99.90;;;;;;5046866;28;20603;-75
2024/01/09 02:51:47;;;;;;;5.13;2.30;;;-1.40;99.90;;;;;;5066811;28;20092;-74
2024/01/09 02:54:13;;;;;;;5.15;2.08;;;-1.40;99.90;;;;;;5087150;28;20095;-75
2024/01/09 02:56:39;;;;;;;5.50;2.42;;;-1.50;99.90;;;;;;5087789;28;20598;-75
2024/01/09 02:59:05;;;;;;;7.47;2.60;;;-1.50;99.90;;;;;;5086714;28;20035;-74
2024/01/09 03:01:31;;;;;;;6.00;2.83;;;-1.50;99.90;;;;;;5087584;28;20035;-74
2024/01/09 03:03:57;;;;;;;6.63;2.75;;;-1.50;99.90;;;;;;5086800;28;20024;-74
2024/01/09 03:06:23;;;;;;;9.50;2.70;;;-1.50;99.90;;;;;;5087475;28;20492;-74
2024/01/09 03:08:48;;;;;;;5.60;2.47;;;-1.50;99.90;;;;;;5087048;28;20570;-74
2024/01/09 03:11:15;;;;;;;3.92;2.25;;;-1.50;99.90;;;;;;5088062;28;20558;-74
2024/01/09 03:13:40;;;;;;;5.00;2.47;;;-1.50;99.90;;;;;;5068352;28;20024;-75
2024/01/09 03:16:13;;;;;;;4.03;2.13;;;-1.50;99.90;;;;;;5068935;28;20028;-74
2024/01/09 03:18:40;;;;;;;5.72;2.83;;;-1.50;99.90;;;;;;5086908;28;20026;-74
2024/01/09 03:21:05;;;;;;;5.63;2.28;;;-1.50;99.90;;;;;;5087085;28;20027;-74
2024/01/09 03:23:34;;;;;;;5.50;2.75;;;-1.40;99.90;;;;;;5086683;28;20404;-74
2024/01/09 03:26:00;;;;;;;3.65;2.10;;;-1.50;99.90;;;;;;5086837;28;20035;-74
2024/01/09 03:28:26;;;;;;;4.43;2.40;;;-1.50;99.90;;;;;;5068550;28;20473;-74
2024/01/09 03:30:52;;;;;;;6.03;2.60;;;-1.50;99.90;;;;;;5086876;28;20047;-74
2024/01/09 03:33:18;;;;;;;5.13;2.47;;;-1.50;99.90;;;;;;5086631;28;20355;-74
2024/01/09 03:35:44;;;;;;;6.13;2.30;;;-1.50;99.90;;;;;;5086809;28;20020;-75
2024/01/09 03:38:09;;;;;;;6.78;2.40;;;-1.50;99.90;;;;;;5068772;28;20047;-74
2024/01/09 03:40:36;;;;;;;4.40;2.25;;;-1.50;99.90;;;;;;5086311;28;20028;-74
2024/01/09 03:43:02;;;;;;;4.95;2.47;;;-1.50;99.90;;;;;;5072322;28;20024;-74
2024/01/09 03:45:29;;;;;;;5.78;2.60;;;-1.60;99.90;;;;;;5068023;28;20481;-75
2024/01/09 03:47:55;;;;;;;5.95;2.60;;;-1.60;99.90;;;;;;5068221;28;20445;-75
2024/01/09 03:50:21;;;;;;;4.43;2.22;;;-1.50;99.90;;;;;;5067833;28;20043;-74
2024/01/09 03:52:46;;;;;;;5.72;2.47;;;-1.60;99.90;;;;;;5084833;28;20162;-75
2024/01/09 03:55:12;;;;;;;6.22;2.70;;;-1.60;99.90;;;;;;5085717;28;20016;-75
2024/01/09 03:57:38;;;;;;;6.35;2.80;;;-1.60;99.90;;;;;;5086647;28;20093;-74
2024/01/09 04:00:04;;;;;;;5.65;2.95;;;-1.70;99.90;;;;;;5067453;28;20023;-74
2024/01/09 04:02:30;;;;;;;5.45;2.30;;;-1.60;99.90;;;;;;5086172;28;20032;-74
2024/01/09 04:04:55;;;;;;;6.38;2.50;;;-1.60;99.90;;;;;;5085488;28;20027;-75
2024/01/09 04:07:21;;;;;;;5.80;2.85;;;-1.60;99.90;;;;;;5086582;28;20028;-75
2024/01/09 04:09:47;;;;;;;5.60;2.83;;;-1.60;99.90;;;;;;5085119;28;20031;-74
2024/01/09 04:12:13;;;;;;;6.20;2.58;;;-1.70;99.90;;;;;;5086264;28;20055;-74
2024/01/09 04:14:38;;;;;;;6.30;2.63;;;-1.70;99.90;;;;;;5085384;28;20031;-74
2024/01/09 04:17:04;;;;;;;8.88;2.70;;;-1.60;99.90;;;;;;5085727;28;20544;-74
2024/01/09 04:19:29;;;;;;;4.78;2.38;;;-1.70;99.90;;;;;;5085479;28;20045;-74
2024/01/09 04:21:55;;;;;;;4.40;2.00;;;-1.70;99.90;;;;;;5085877;28;20043;-76
2024/01/09 04:24:21;;;;;;;6.32;3.13;;;-1.70;99.90;;;;;;5085336;28;20070;-74
2024/01/09 04:26:47;;;;;;;6.32;2.95;;;-1.70;99.90;;;;;;5086044;28;20024;-74
2024/01/09 04:29:12;;;;;;;7.97;3.13;;;-1.70;99.90;;;;;;5085548;28;20532;-74
2024/01/09 04:31:38;;;;;;;7.18;2.85;;;-1.70;99.90;;;;;;5087282;28;20485;-74
2024/01/09 04:34:04;;;;;;;7.07;3.03;;;-1.70;99.90;;;;;;5086673;28;20507;-74
2024/01/09 04:36:29;;;;;;;4.57;2.33;;;-1.70;99.90;;;;;;5087156;28;20686;-74
2024/01/09 04:38:55;;;;;;;5.85;2.67;;;-1.70;99.90;;;;;;5068352;28;20028;-74
2024/01/09 04:41:22;;;;;;;3.90;2.03;;;-1.80;99.90;;;;;;5068934;28;20097;-74
2024/01/09 04:43:48;;;;;;;6.32;2.70;;;-1.80;99.90;;;;;;5086471;28;20765;-74
2024/01/09 04:46:14;;;;;;;4.22;2.40;;;-1.80;99.90;;;;;;5087202;28;20031;-74
2024/01/09 04:48:39;;;;;;;5.60;2.85;;;-1.80;99.90;;;;;;5068453;28;20032;-74
2024/01/09 04:51:05;;;;;;;5.82;2.53;;;-1.90;99.90;;;;;;5086709;28;20040;-74
2024/01/09 04:53:31;;;;;;;5.72;2.78;;;-1.90;99.90;;;;;;5087011;28;20440;-74
2024/01/09 04:55:56;;;;;;;6.00;3.10;;;-1.90;99.90;;;;;;5086568;28;20124;-74
2024/01/09 04:58:22;;;;;;;5.18;2.67;;;-1.90;99.90;;;;;;5086815;28;20496;-74
2024/01/09 05:00:48;;;;;;;5.05;2.70;;;-1.90;99.90;;;;;;5067960;28;20565;-74
2024/01/09 05:03:14;;;;;;;7.03;3.13;;;-1.90;99.90;;;;;;5086852;28;20111;-74
2024/01/09 05:05:39;;;;;;;5.20;3.00;;;-1.90;99.90;;;;;;5086674;28;20089;-74
2024/01/09 05:08:05;;;;;;;6.57;2.67;;;-1.90;99.90;;;;;;5086544;28;20028;-74
2024/01/09 05:10:31;;;;;;;6.15;2.90;;;-1.90;99.90;;;;;;5086389;28;20028;-74
2024/01/09 05:12:57;;;;;;;6.43;3.08;;;-1.90;99.90;;;;;;5068239;28;20028;-74
2024/01/09 05:15:23;;;;;;;8.13;2.90;;;-1.90;99.90;;;;;;5068147;28;20061;-74
2024/01/09 05:17:49;;;;;;;5.15;2.40;;;-1.90;99.90;;;;;;5086713;28;20021;-74
2024/01/09 05:20:15;;;;;;;6.10;3.13;;;-2.00;99.90;;;;;;5068181;28;20024;-74
2024/01/09 05:22:40;;;;;;;5.72;2.38;;;-2.00;99.90;;;;;;5086759;28;20512;-74
2024/01/09 05:25:08;;;;;;;5.95;2.72;;;-2.00;99.90;;;;;;5067847;28;20540;-75
2024/01/09 05:27:35;;;;;;;6.63;3.25;;;-2.00;99.90;;;;;;5086304;28;20070;-75
2024/01/09 05:30:00;;;;;;;6.80;3.40;;;-2.00;99.90;;;;;;5085993;28;20024;-74
2024/01/09 05:32:26;;;;;;;6.43;3.00;;;-2.00;99.90;;;;;;5086814;28;20038;-74
2024/01/09 05:34:52;;;;;;;5.35;2.70;;;-2.00;99.90;;;;;;5086046;28;20530;-74
2024/01/09 05:37:18;;;;;;;6.95;2.75;;;-2.00;99.90;;;;;;5086775;28;20068;-74
2024/01/09 05:39:45;;;;;;;6.03;3.00;;;-2.00;99.90;;;;;;5067898;28;20474;-74
2024/01/09 05:42:11;;;;;;;6.65;2.95;;;-2.10;99.90;;;;;;5086611;28;20036;-74
2024/01/09 05:44:37;;;;;;;7.20;3.47;;;-2.10;99.90;;;;;;5067715;28;20359;-75
2024/01/09 05:47:03;;;;;;;8.63;4.05;;;-2.00;99.90;;;;;;5086209;28;20450;-74
2024/01/09 05:49:29;;;;;;;7.03;3.47;;;-2.10;99.90;;;;;;5067972;28;20485;-74
2024/01/09 05:51:54;;;;;;;5.15;2.88;;;-2.00;99.90;;;;;;5085963;28;20036;-74
2024/01/09 05:54:20;;;;;;;6.10;3.10;;;-2.10;99.90;;;;;;5086010;28;20435;-74
2024/01/09 05:56:46;;;;;;;6.50;3.47;;;-2.10;99.90;;;;;;5086315;28;20081;-74
2024/01/09 05:59:12;;;;;;;7.05;3.08;;;-2.10;99.90;;;;;;5086014;28;20031;-74
2024/01/09 06:01:37;;;;;;;5.93;3.17;;;-2.10;99.90;;;;;;5086049;28;20070;-75
2024/01/09 06:04:03;;;;;;;5.55;2.85;;;-2.10;99.90;;;;;;5085800;28;20133;-74
2024/01/09 06:06:29;;;;;;;8.38;3.45;;;-2.10;99.90;;;;;;5086247;28;20114;-74
2024/01/09 06:08:55;;;;;;;6.30;3.30;;;-2.10;99.90;;;;;;5085927;28;20032;-74
2024/01/09 06:11:21;;;;;;;6.07;3.53;;;-2.10;99.90;;;;;;5070514;28;20040;-74
2024/01/09 06:13:47;;;;;;;7.20;3.42;;;-2.10;99.90;;;;;;5085805;28;20028;-74
2024/01/09 06:16:13;;;;;;;6.85;3.25;;;-2.20;99.90;;;;;;5088165;28;20164;-73
2024/01/09 06:18:39;;;;;;;6.22;3.08;;;-2.20;99.90;;;;;;5089902;28;20381;-74
2024/01/09 06:21:05;;;;;;;7.25;3.33;;;-2.20;99.90;;;;;;5089396;28;20546;-74
2024/01/09 06:23:30;;;;;;;6.68;3.63;;;-2.20;99.90;;;;;;5089776;28;20023;-74
2024/01/09 06:25:56;;;;;;;7.28;2.83;;;-2.30;99.90;;;;;;5088881;28;20452;-74
2024/01/09 06:28:22;;;;;;;6.55;3.08;;;-2.30;99.90;;;;;;5089577;28;20036;-74
2024/01/09 06:30:47;;;;;;;7.90;3.67;;;-2.30;99.90;;;;;;5089100;28;20020;-74
2024/01/09 06:33:13;;;;;;;8.05;4.13;;;-2.30;99.90;;;;;;5089560;28;20396;-76
2024/01/09 06:35:39;;;;;;;7.65;4.10;;;-2.30;99.90;;;;;;5070806;28;20115;-74
2024/01/09 06:38:04;;;;;;;8.68;3.65;;;-2.30;99.90;;;;;;5089189;28;20048;-74
2024/01/09 06:40:30;;;;;;;7.28;3.40;;;-2.30;99.90;;;;;;5089268;28;20023;-74
2024/01/09 06:42:56;;;;;;;8.20;3.88;;;-2.30;99.90;;;;;;5070746;28;20452;-74
2024/01/09 06:45:21;;;;;;;6.38;3.42;;;-2.30;99.90;;;;;;5089082;28;20039;-74
2024/01/09 06:47:47;;;;;;;7.43;3.40;;;-2.30;99.90;;;;;;5070661;28;20082;-74
2024/01/09 06:50:13;;;;;;;6.60;3.17;;;-2.30;99.90;;;;;;5070598;28;20066;-74
2024/01/09 06:52:39;;;;;;;7.15;3.80;;;-2.30;99.90;;;;;;5053015;28;20068;-74
2024/01/09 06:55:05;;;;;;;6.70;3.58;;;-2.30;99.90;;;;;;5059421;28;20017;-74
2024/01/09 06:57:31;;;;;;;8.68;3.90;;;-2.40;99.90;;;;;;5062298;28;20032;-74
2024/01/09 06:59:57;;;;;;;7.28;3.78;;;-2.40;99.90;;;;;;5054133;28;20522;-75
2024/01/09 07:02:22;;;;;;;7.07;3.45;;;-2.40;99.90;;;;;;5057426;28;20502;-73
2024/01/09 07:04:48;;;;;;;7.38;3.67;;;-2.40;99.90;;;;;;5057625;28;20032;-74
2024/01/09 07:07:14;;;;;;;9.27;4.13;;;-2.40;99.90;;;;;;5044375;28;20117;-75
2024/01/09 07:09:40;;;;;;;7.88;3.70;;;-2.40;99.90;;;;;;5039667;28;20079;-76
2024/01/09 07:12:08;;;;;;;7.53;3.45;;;-2.40;99.90;;;;;;5059757;28;20033;-74
2024/01/09 07:14:33;;;;;;;9.63;4.20;;;-2.40;99.90;;;;;;5044769;28;20104;-74
2024/01/09 07:16:59;;;;;;;8.23;3.83;;;-2.40;99.90;;;;;;5054097;28;20167;-74
2024/01/09 07:19:25;;;;;;;8.27;3.72;;;-2.40;99.90;;;;;;5061603;28;20036;-73
2024/01/09 07:21:51;;;;;;;7.35;3.80;;;-2.50;99.90;;;;;;5049451;28;20106;-73
2024/01/09 07:24:16;;;;;;;8.23;4.32;;;-2.50;99.90;;;;;;5044465;28;20517;-75
2024/01/09 07:26:42;;;;;;;8.63;3.72;;;-2.40;99.90;;;;;;5051462;28;20032;-75
2024/01/09 07:29:08;;;;;;;7.13;3.72;;;-2.50;99.90;;;;;;5059105;28;20540;-75
2024/01/09 07:31:34;;;;;;;7.53;3.88;;;-2.50;99.90;;;;;;5043077;28;20042;-75
2024/01/09 07:34:00;;;;;;;6.68;3.40;;;-2.50;99.90;;;;;;5059354;28;20020;-76
2024/01/09 07:36:26;;;;;;;7.22;3.78;;;-2.50;99.90;;;;;;5054124;28;20021;-76
2024/01/09 07:38:51;;;;;;;7.40;3.90;;;-2.50;99.90;;;;;;5051451;28;20031;-76
2024/01/09 07:41:17;;;;;;;6.75;3.53;;;-2.50;99.90;;;;;;5059976;28;20025;-75
2024/01/09 07:43:43;;;;;;;7.30;3.85;;;-2.50;99.90;;;;;;5046243;28;20036;-76
2024/01/09 07:46:10;;;;;;;7.85;3.90;;;-2.50;99.90;;;;;;5060049;28;20032;-76
2024/01/09 07:48:36;;;;;;;8.32;3.72;;;-2.50;99.90;;;;;;5054937;28;20465;-76
2024/01/09 07:51:02;;;;;;;8.63;3.97;;;-2.50;99.90;;;;;;5056312;28;20093;-75
2024/01/09 07:53:28;;;;;;;7.35;3.90;;;-2.50;99.90;;;;;;5068563;28;20039;-76
2024/01/09 07:55:54;;;;;;;9.57;4.05;;;-2.60;99.90;;;;;;5085524;28;20016;-76
2024/01/09 07:58:19;;;;;;;7.90;3.75;;;-2.60;99.90;;;;;;5082702;28;20024;-76
2024/01/09 08:00:45;;;;;;;7.47;3.80;;;-2.60;99.90;;;;;;5068163;28;20017;-76
2024/01/09 08:03:13;;;;;;;8.23;4.18;;;-2.60;99.90;;;;;;5087518;28;20432;-76
2024/01/09 08:05:39;;;;;;;6.65;3.50;;;-2.60;99.90;;;;;;5070787;28;20042;-76
2024/01/09 08:08:06;;;;;;;6.80;3.50;;;-2.60;99.90;;;;;;5069919;28;20024;-76
2024/01/09 08:10:31;;;;;;;8.38;4.05;;;-2.60;99.90;;;;;;5087272;28;20028;-76
2024/01/09 08:12:57;;;;;;;8.02;3.47;;;-2.50;99.90;;;;;;5066740;28;20512;-77
2024/01/09 08:15:23;;;;;;;7.63;3.90;;;-2.60;99.90;;;;;;5080553;28;20025;-76
2024/01/09 08:17:49;;;;;;;7.93;3.90;;;-2.60;99.90;;;;;;5085831;28;20085;-76
2024/01/09 08:20:14;;;;;;;8.60;4.28;;;-2.50;99.90;;;;;;5082465;28;20028;-76
2024/01/09 08:22:40;;;;;;;8.75;4.30;;;-2.60;99.90;;;;;;5087156;28;20473;-76
2024/01/09 08:25:06;;;;;;;8.52;3.72;;;-2.50;99.90;;;;;;5085111;28;20035;-76
2024/01/09 08:27:32;;;;;;;7.57;3.78;;;-2.50;99.90;;;;;;5081614;28;20070;-76
2024/01/09 08:29:57;;;;;;;8.02;4.05;;;-2.50;99.90;;;;;;5084417;28;20027;-77
2024/01/09 08:32:23;;;;;;;8.25;4.22;;;-2.50;99.90;;;;;;5085575;28;20024;-77
2024/01/09 08:34:49;;;;;;;7.05;3.70;;;-2.50;99.90;;;;;;5082244;28;20535;-76
2024/01/09 08:37:15;;;;;;;7.60;3.55;;;-2.50;99.90;;;;;;5075029;28;20032;-77
2024/01/09 08:39:40;;;;;;;7.28;3.42;;;-2.40;99.90;;;;;;5081579;28;20037;-77
2024/01/09 08:42:06;;;;;;;6.18;3.35;;;-2.40;99.90;;;;;;5085420;28;20497;-77
2024/01/09 08:44:32;;;;;;;9.57;4.10;;;-2.30;99.90;;;;;;5081250;28;20071;-77
2024/01/09 08:46:57;;;;;;;7.20;3.63;;;-2.30;99.90;;;;;;5086209;28;20051;-77
2024/01/09 08:49:23;;;;;;;6.45;3.38;;;-2.30;99.90;;;;;;5084848;28;20111;-78
2024/01/09 08:51:49;;;;;;;8.10;3.90;;;-2.30;99.90;;;;;;5063985;28;20163;-77
2024/01/09 08:54:15;;;;;;;7.93;3.75;;;-2.30;99.90;;;;;;5085577;28;20028;-77
2024/01/09 08:56:42;;;;;;;9.05;4.22;;;-2.20;99.90;;;;;;5084242;28;20437;-77
2024/01/09 08:59:09;;;;;;;8.30;4.40;;;-2.20;99.90;;;;;;5066942;28;20052;-78
2024/01/09 09:01:37;;;;;;;7.57;3.45;;;-2.20;99.90;;;;;;5084194;28;20485;-78
2024/01/09 09:04:03;;;;;;;7.03;3.15;;;-2.20;99.90;;;;;;5084581;28;20020;-78
2024/01/09 09:06:29;;;;;;;6.75;3.00;;;-2.10;99.90;;;;;;5066358;28;20016;-78
2024/01/09 09:08:55;;;;;;;7.15;3.60;;;-2.10;99.90;;;;;;5067012;28;20723;-78
2024/01/09 09:11:23;;;;;;;9.02;3.65;;;-2.10;99.90;;;;;;5065900;28;20047;-76
2024/01/09 09:13:48;;;;;;;7.60;3.42;;;-2.00;99.90;;;;;;5066478;28;20473;-78
2024/01/09 09:16:14;;;;;;;6.57;3.10;;;-2.00;99.90;;;;;;5085159;28;20017;-81
2024/01/09 09:18:40;;;;;;;8.45;3.63;;;-1.90;99.90;;;;;;5085072;28;20488;-82
2024/01/09 09:21:06;;;;;;;8.45;4.13;;;-1.90;99.90;;;;;;5084974;28;20035;-81
2024/01/09 09:23:32;;;;;;;6.70;3.42;;;-1.80;99.90;;;;;;5085406;28;20565;-79
2024/01/09 09:25:57;;;;;;;9.10;3.75;;;-1.80;99.90;;;;;;5084018;28;20486;-80
2024/01/09 09:28:24;;;;;;;6.05;3.15;;;-1.70;99.90;;;;;;5085019;28;20477;-79
2024/01/09 09:30:49;;;;;;;5.68;3.13;;;-1.70;99.90;;;;;;5084493;28;20026;-80
2024/01/09 09:33:15;;;;;;;6.18;3.15;;;-1.70;99.90;;;;;;5083132;28;20441;-79
2024/01/09 09:35:41;;;;;;;8.18;3.83;;;-1.60;99.90;;;;;;5083690;28;20050;-77
2024/01/09 09:38:07;;;;;;;7.78;3.30;;;-1.50;99.90;;;;;;5085473;28;20028;-78
2024/01/09 09:40:33;;;;;;;8.23;3.58;;;-1.50;99.90;;;;;;5084692;28;20493;-78
2024/01/09 09:43:02;;;;;;;8.68;3.90;;;-1.40;99.90;;;;;;5085206;28;20091;-78
2024/01/09 09:45:31;;;;;;;5.35;3.13;;;-1.40;99.90;;;;;;5084489;28;20024;-78
2024/01/09 09:47:57;;;;;;;7.00;3.38;;;-1.40;99.90;;;;;;5085422;28;20051;-78
2024/01/09 09:50:24;;;;;;;7.03;3.50;;;-1.40;99.90;;;;;;5086502;28;20051;-79
2024/01/09 09:52:50;;;;;;;6.82;3.28;;;-1.30;99.90;;;;;;5068345;28;20112;-79
2024/01/09 09:55:18;;;;;;;8.73;3.80;;;-1.30;99.90;;;;;;5069197;28;20104;-79
2024/01/09 09:57:44;;;;;;;8.68;3.28;;;-1.30;99.90;;;;;;5066628;28;20028;-78
2024/01/09 10:00:21;;;;;;;6.68;3.35;;;-1.20;99.90;;;;;;5071634;28;20019;-77
2024/01/09 10:02:48;;;;;;;8.38;3.30;;;-1.20;99.90;;;;;;5069866;28;20029;-78
2024/01/09 10:05:17;;;;;;;5.93;3.10;;;-1.10;99.90;;;;;;5066566;28;20020;-77
2024/01/09 10:07:45;;;;;;;6.38;3.35;;;-1.10;99.90;;;;;;5067080;28;20033;-77
2024/01/09 10:10:13;;;;;;;6.63;3.22;;;-1.10;99.90;;;;;;5067289;28;20082;-79
2024/01/09 10:12:42;;;;;;;7.68;3.40;;;-1.00;99.90;;;;;;5065706;28;20032;-77
2024/01/09 10:15:09;;;;;;;7.93;3.20;;;-1.00;99.90;;;;;;5066234;28;20107;-78
2024/01/09 10:17:36;;;;;;;6.40;3.10;;;-0.90;99.90;;;;;;5066793;28;20503;-75
2024/01/09 10:20:08;;;;;;;7.68;3.55;;;-0.90;99.90;;;;;;5066376;28;20512;-76
2024/01/09 10:22:35;;;;;;;6.88;3.33;;;-0.90;99.90;;;;;;5068257;28;20032;-76
2024/01/09 10:25:05;;;;;;;6.43;2.92;;;-0.90;99.90;;;;;;5066740;28;20038;-76
2024/01/09 10:27:34;;;;;;;6.30;3.55;;;-0.80;99.90;;;;;;5068197;28;20032;-75
2024/01/09 10:30:00;;;;;;;7.20;3.20;;;-0.80;99.90;;;;;;5065517;28;20024;-77
2024/01/09 10:32:26;;;;;;;5.88;2.85;;;-0.70;99.90;;;;;;5065306;28;20787;-77
2024/01/09 10:34:51;;;;;;;5.45;2.85;;;-0.70;99.90;;;;;;5066941;28;20193;-76
2024/01/09 10:37:18;;;;;;;5.82;2.92;;;-0.70;99.90;;;;;;5067156;28;20024;-76
2024/01/09 10:39:48;;;;;;;6.10;3.10;;;-0.70;99.90;;;;;;5066374;28;20031;-77
2024/01/09 10:42:13;;;;;;;6.70;3.17;;;-0.60;99.90;;;;;;5067046;28;20444;-78
2024/01/09 10:44:39;;;;;;;5.82;2.83;;;-0.60;99.90;;;;;;5064719;28;20149;-77
2024/01/09 10:47:13;;;;;;;6.43;3.13;;;-0.60;99.90;;;;;;5068692;28;20021;-78
2024/01/09 10:49:43;;;;;;;7.10;3.38;;;-0.50;99.90;;;;;;5069391;28;20059;-79
2024/01/09 10:52:16;;;;;;;6.00;2.65;;;-0.50;99.90;;;;;;5056178;28;20103;-78
2024/01/09 10:54:44;;;;;;;6.82;3.20;;;-0.40;99.90;;;;;;5047299;28;20037;-78
2024/01/09 10:57:17;;;;;;;5.97;2.88;;;-0.30;99.90;;;;;;5049376;28;20100;-79
2024/01/09 10:59:44;;;;;;;6.07;3.13;;;-0.30;99.90;;;;;;5046754;28;20074;-79
2024/01/09 11:02:21;;;;;;;4.53;2.33;;;-0.30;99.90;;;;;;5048913;28;20036;-79
2024/01/09 11:04:47;;;;;;;6.40;2.92;;;-0.30;99.90;;;;;;5050367;28;20021;-79
2024/01/09 11:07:17;;;;;;;6.82;3.05;;;-0.20;99.90;;;;;;5049359;28;20431;-79
2024/01/09 11:09:45;;;;;;;4.55;2.60;;;-0.20;99.90;;;;;;5050758;28;20087;-80
2024/01/09 11:12:36;;;;;;;6.55;2.50;;;-0.10;99.90;;;;;;5053560;28;20021;-80
2024/01/09 11:15:02;;;;;;;6.78;3.78;;;-0.10;99.90;;;;;;5044171;28;20104;-81
2024/01/09 11:17:30;;;;;;;6.50;3.15;;;0.00;99.90;;;;;;5051064;28;20017;-81
2024/01/09 11:19:56;;;;;;;6.15;3.20;;;0.00;99.90;;;;;;5050262;28;20025;-81
2024/01/09 11:22:22;;;;;;;6.32;2.58;;;0.10;99.90;;;;;;5039026;28;20044;-80
2024/01/09 11:24:53;;;;;;;5.50;2.78;;;0.20;99.90;;;;;;5061072;28;20047;-80
2024/01/09 11:27:19;;;;;;;5.93;3.10;;;0.30;99.90;;;;;;5051953;28;20055;-81
2024/01/09 11:29:52;;;;;;;5.70;3.22;;;0.50;99.90;;;;;;5048876;28;20033;-81
2024/01/09 11:32:19;;;;;;;6.97;2.92;;;0.70;99.90;;;;;;5051500;28;20029;-80
2024/01/09 11:34:46;;;;;;;5.32;2.50;;;0.80;99.90;;;;;;5052918;28;20079;-80
2024/01/09 11:37:19;;;;;;;5.10;2.70;;;0.90;99.90;;;;;;5065466;28;20021;-82
2024/01/09 11:39:45;;;;;;;5.60;2.70;;;1.00;99.90;;;;;;5049370;28;20028;-82
2024/01/09 11:42:11;;;;;;;6.90;3.00;;;1.10;99.90;;;;;;5049141;28;20040;-84
2024/01/09 11:44:37;;;;;;;5.40;2.97;;;1.10;99.90;;;;;;5048406;28;20474;-82
2024/01/09 11:47:03;;;;;;;6.00;2.92;;;1.20;99.90;;;;;;5049964;28;20028;-82
2024/01/09 11:49:29;;;;;;;6.95;3.30;;;1.30;99.90;;;;;;5048687;28;20159;-81
2024/01/09 11:51:55;;;;;;;5.38;2.60;;;1.40;99.90;;;;;;5070083;28;20086;-82
2024/01/09 11:54:21;;;;;;;7.65;3.45;;;1.50;99.90;;;;;;5070014;28;20028;-80
2024/01/09 11:56:49;;;;;;;5.40;2.78;;;1.50;99.90;;;;;;5069724;28;20077;-80
2024/01/09 11:59:18;;;;;;;7.68;3.20;;;1.60;99.90;;;;;;5088804;28;20028;-79
2024/01/09 12:01:47;;;;;;;5.72;2.85;;;1.60;99.90;;;;;;5069943;28;20051;-79
2024/01/09 12:04:14;;;;;;;5.55;3.00;;;1.50;99.90;;;;;;5087618;28;20028;-79
2024/01/09 12:06:40;;;;;;;5.82;2.63;;;1.50;99.90;;;;;;5087917;28;20024;-79
2024/01/09 12:09:05;;;;;;;5.75;2.97;;;1.60;99.90;;;;;;5070277;28;20034;-79
2024/01/09 12:11:31;;;;;;;5.25;2.40;;;1.70;99.90;;;;;;5069226;28;20040;-78
2024/01/09 12:14:01;;;;;;;5.78;2.85;;;1.80;99.90;;;;;;5084622;28;20478;-78
2024/01/09 12:16:29;;;;;;;5.05;2.60;;;1.90;99.90;;;;;;5087086;28;20035;-77
2024/01/09 12:18:56;;;;;;;6.40;2.90;;;2.00;99.90;;;;;;5087077;28;20020;-80
2024/01/09 12:21:27;;;;;;;7.20;3.17;;;2.00;99.90;;;;;;5087334;28;20598;-80
2024/01/09 12:24:00;;;;;;;5.88;2.80;;;2.10;99.80;;;;;;5087363;28;20055;-80
2024/01/09 12:26:28;;;;;;;9.75;2.70;;;2.10;99.90;;;;;;5087350;28;20039;-80
2024/01/09 12:28:54;;;;;;;5.72;3.03;;;2.20;99.40;;;;;;5068879;28;20035;-79
2024/01/09 12:31:23;;;;;;;5.75;2.90;;;2.20;99.30;;;;;;5086357;28;20032;-78
2024/01/09 12:33:49;;;;;;;6.45;2.60;;;2.10;99.20;;;;;;5080374;28;20020;-77
2024/01/09 12:36:16;;;;;;;3.67;1.98;;;2.10;99.20;;;;;;5078287;28;20111;-78
2024/01/09 12:38:42;;;;;;;5.13;2.58;;;2.10;98.80;;;;;;5079329;28;20024;-79
2024/01/09 12:41:09;;;;;;;5.95;2.63;;;2.10;98.90;;;;;;5067972;28;20057;-79
2024/01/09 12:43:36;;;;;;;5.05;2.47;;;2.20;99.00;;;;;;5086583;28;20572;-77